sensor_id;sensor_type;location;lat;lon;timestamp;P1;durP1;ratioP1;P2;durP2;ratioP2
67162;SDS011;54092;53.088;8.850;2022-12-18T00:00:43;29.75;;;13.82;;
67162;SDS011;54092;53.088;8.850;2022-12-18T00:03:11;24.23;;;12.90;;
67162;SDS011;54092;53.088;8.850;2022-12-18T00:05:45;33.03;;;15.38;;
67162;SDS011;54092;53.088;8.850;2022-12-18T00:08:20;24.83;;;12.85;;
67162;SDS011;54092;53.088;8.850;2022-12-18T00:10:45;32.17;;;16.52;;
67162;SDS011;54092;53.088;8.850;2022-12-18T00:13:11;27.38;;;13.82;;
67162;SDS011;54092;53.088;8.850;2022-12-18T00:15:38;24.90;;;14.25;;
67162;SDS011;54092;53.088;8.850;2022-12-18T00:18:04;27.10;;;11.13;;
67162;SDS011;54092;53.088;8.850;2022-12-18T00:20:30;37.53;;;14.18;;
67162;SDS011;54092;53.088;8.850;2022-12-18T00:22:56;24.50;;;11.93;;
67162;SDS011;54092;53.088;8.850;2022-12-18T00:25:22;25.30;;;13.40;;
67162;SDS011;54092;53.088;8.850;2022-12-18T00:27:48;28.45;;;13.82;;
67162;SDS011;54092;53.088;8.850;2022-12-18T00:30:13;27.42;;;13.60;;
67162;SDS011;54092;53.088;8.850;2022-12-18T00:32:39;26.90;;;11.45;;
67162;SDS011;54092;53.088;8.850;2022-12-18T00:35:05;25.42;;;13.27;;
67162;SDS011;54092;53.088;8.850;2022-12-18T00:37:35;26.27;;;12.40;;
67162;SDS011;54092;53.088;8.850;2022-12-18T00:40:00;24.77;;;13.07;;
67162;SDS011;54092;53.088;8.850;2022-12-18T00:42:27;25.50;;;12.57;;
67162;SDS011;54092;53.088;8.850;2022-12-18T00:45:11;29.85;;;13.45;;
67162;SDS011;54092;53.088;8.850;2022-12-18T00:47:36;26.65;;;12.25;;
67162;SDS011;54092;53.088;8.850;2022-12-18T00:50:02;25.45;;;13.30;;
67162;SDS011;54092;53.088;8.850;2022-12-18T00:52:28;22.58;;;11.77;;
67162;SDS011;54092;53.088;8.850;2022-12-18T00:54:53;24.35;;;12.60;;
67162;SDS011;54092;53.088;8.850;2022-12-18T00:57:19;23.33;;;11.80;;
67162;SDS011;54092;53.088;8.850;2022-12-18T00:59:44;27.98;;;12.25;;
67162;SDS011;54092;53.088;8.850;2022-12-18T01:02:10;30.08;;;12.68;;
67162;SDS011;54092;53.088;8.850;2022-12-18T01:04:35;24.83;;;11.85;;
67162;SDS011;54092;53.088;8.850;2022-12-18T01:07:01;23.27;;;10.63;;
67162;SDS011;54092;53.088;8.850;2022-12-18T01:09:26;26.17;;;10.93;;
67162;SDS011;54092;53.088;8.850;2022-12-18T01:11:52;21.48;;;9.45;;
67162;SDS011;54092;53.088;8.850;2022-12-18T01:14:18;25.88;;;13.13;;
67162;SDS011;54092;53.088;8.850;2022-12-18T01:16:43;28.85;;;13.32;;
67162;SDS011;54092;53.088;8.850;2022-12-18T01:19:09;24.52;;;10.57;;
67162;SDS011;54092;53.088;8.850;2022-12-18T01:21:34;27.58;;;12.73;;
67162;SDS011;54092;53.088;8.850;2022-12-18T01:24:00;25.63;;;12.05;;
67162;SDS011;54092;53.088;8.850;2022-12-18T01:26:25;21.60;;;12.98;;
67162;SDS011;54092;53.088;8.850;2022-12-18T01:28:54;21.83;;;11.70;;
67162;SDS011;54092;53.088;8.850;2022-12-18T01:31:23;25.13;;;11.38;;
67162;SDS011;54092;53.088;8.850;2022-12-18T01:33:53;19.23;;;10.55;;
67162;SDS011;54092;53.088;8.850;2022-12-18T01:36:23;25.75;;;12.13;;
67162;SDS011;54092;53.088;8.850;2022-12-18T01:38:53;29.23;;;12.20;;
67162;SDS011;54092;53.088;8.850;2022-12-18T01:41:21;19.98;;;10.57;;
67162;SDS011;54092;53.088;8.850;2022-12-18T01:46:19;24.40;;;11.77;;
67162;SDS011;54092;53.088;8.850;2022-12-18T01:48:48;23.15;;;11.90;;
67162;SDS011;54092;53.088;8.850;2022-12-18T01:51:15;21.38;;;11.38;;
67162;SDS011;54092;53.088;8.850;2022-12-18T01:53:41;22.23;;;11.52;;
67162;SDS011;54092;53.088;8.850;2022-12-18T01:56:11;20.38;;;11.55;;
67162;SDS011;54092;53.088;8.850;2022-12-18T02:01:21;19.02;;;10.00;;
67162;SDS011;54092;53.088;8.850;2022-12-18T02:03:48;26.55;;;8.10;;
67162;SDS011;54092;53.088;8.850;2022-12-18T02:08:59;21.95;;;10.68;;
67162;SDS011;54092;53.088;8.850;2022-12-18T02:11:34;24.38;;;11.60;;
67162;SDS011;54092;53.088;8.850;2022-12-18T02:14:26;16.85;;;8.35;;
67162;SDS011;54092;53.088;8.850;2022-12-18T02:19:38;18.90;;;9.93;;
67162;SDS011;54092;53.088;8.850;2022-12-18T02:22:34;18.60;;;10.70;;
67162;SDS011;54092;53.088;8.850;2022-12-18T02:28:01;15.73;;;8.98;;
67162;SDS011;54092;53.088;8.850;2022-12-18T02:30:31;16.85;;;8.77;;
67162;SDS011;54092;53.088;8.850;2022-12-18T02:33:00;18.40;;;9.55;;
67162;SDS011;54092;53.088;8.850;2022-12-18T02:35:29;19.67;;;10.73;;
67162;SDS011;54092;53.088;8.850;2022-12-18T02:37:55;21.60;;;9.93;;
67162;SDS011;54092;53.088;8.850;2022-12-18T02:40:23;19.25;;;9.20;;
67162;SDS011;54092;53.088;8.850;2022-12-18T02:42:51;21.63;;;9.45;;
67162;SDS011;54092;53.088;8.850;2022-12-18T02:45:16;24.80;;;10.55;;
67162;SDS011;54092;53.088;8.850;2022-12-18T02:47:43;21.08;;;8.98;;
67162;SDS011;54092;53.088;8.850;2022-12-18T02:53:04;24.07;;;9.60;;
67162;SDS011;54092;53.088;8.850;2022-12-18T02:55:36;12.90;;;6.88;;
67162;SDS011;54092;53.088;8.850;2022-12-18T02:58:20;17.45;;;8.95;;
67162;SDS011;54092;53.088;8.850;2022-12-18T03:00:59;10.82;;;7.18;;
67162;SDS011;54092;53.088;8.850;2022-12-18T03:06:10;17.20;;;8.43;;
67162;SDS011;54092;53.088;8.850;2022-12-18T03:08:41;17.52;;;7.50;;
67162;SDS011;54092;53.088;8.850;2022-12-18T03:13:43;11.93;;;5.57;;
67162;SDS011;54092;53.088;8.850;2022-12-18T03:16:14;14.38;;;7.38;;
67162;SDS011;54092;53.088;8.850;2022-12-18T03:18:46;13.23;;;7.20;;
67162;SDS011;54092;53.088;8.850;2022-12-18T03:21:43;14.95;;;7.65;;
67162;SDS011;54092;53.088;8.850;2022-12-18T03:24:18;14.43;;;7.60;;
67162;SDS011;54092;53.088;8.850;2022-12-18T03:26:46;13.77;;;7.00;;
67162;SDS011;54092;53.088;8.850;2022-12-18T03:29:21;17.52;;;7.40;;
67162;SDS011;54092;53.088;8.850;2022-12-18T03:31:54;17.15;;;7.35;;
67162;SDS011;54092;53.088;8.850;2022-12-18T03:34:26;23.10;;;9.27;;
67162;SDS011;54092;53.088;8.850;2022-12-18T03:36:58;17.83;;;6.75;;
67162;SDS011;54092;53.088;8.850;2022-12-18T03:39:24;14.75;;;7.95;;
67162;SDS011;54092;53.088;8.850;2022-12-18T03:42:07;12.57;;;7.05;;
67162;SDS011;54092;53.088;8.850;2022-12-18T03:47:40;11.90;;;6.15;;
67162;SDS011;54092;53.088;8.850;2022-12-18T03:50:22;12.25;;;6.70;;
67162;SDS011;54092;53.088;8.850;2022-12-18T03:55:50;12.93;;;7.05;;
67162;SDS011;54092;53.088;8.850;2022-12-18T03:58:17;16.38;;;7.20;;
67162;SDS011;54092;53.088;8.850;2022-12-18T04:00:47;18.05;;;7.90;;
67162;SDS011;54092;53.088;8.850;2022-12-18T04:03:16;16.20;;;7.35;;
67162;SDS011;54092;53.088;8.850;2022-12-18T04:05:46;15.35;;;6.85;;
67162;SDS011;54092;53.088;8.850;2022-12-18T04:08:15;20.85;;;8.00;;
67162;SDS011;54092;53.088;8.850;2022-12-18T04:10:40;14.80;;;7.47;;
67162;SDS011;54092;53.088;8.850;2022-12-18T04:13:06;10.32;;;6.53;;
67162;SDS011;54092;53.088;8.850;2022-12-18T04:15:33;18.30;;;7.93;;
67162;SDS011;54092;53.088;8.850;2022-12-18T04:18:00;16.13;;;7.33;;
67162;SDS011;54092;53.088;8.850;2022-12-18T04:20:26;17.50;;;9.07;;
67162;SDS011;54092;53.088;8.850;2022-12-18T04:22:52;13.15;;;6.80;;
67162;SDS011;54092;53.088;8.850;2022-12-18T04:25:17;17.85;;;7.38;;
67162;SDS011;54092;53.088;8.850;2022-12-18T04:27:43;12.45;;;6.45;;
67162;SDS011;54092;53.088;8.850;2022-12-18T04:30:09;19.42;;;6.53;;
67162;SDS011;54092;53.088;8.850;2022-12-18T04:32:35;12.88;;;6.88;;
67162;SDS011;54092;53.088;8.850;2022-12-18T04:35:00;18.58;;;6.72;;
67162;SDS011;54092;53.088;8.850;2022-12-18T04:37:26;11.18;;;6.15;;
67162;SDS011;54092;53.088;8.850;2022-12-18T04:39:52;15.00;;;7.47;;
67162;SDS011;54092;53.088;8.850;2022-12-18T04:42:18;9.52;;;5.95;;
67162;SDS011;54092;53.088;8.850;2022-12-18T04:44:43;12.43;;;6.30;;
67162;SDS011;54092;53.088;8.850;2022-12-18T04:47:09;19.50;;;5.75;;
67162;SDS011;54092;53.088;8.850;2022-12-18T04:49:35;8.20;;;4.47;;
67162;SDS011;54092;53.088;8.850;2022-12-18T04:52:00;14.00;;;6.95;;
67162;SDS011;54092;53.088;8.850;2022-12-18T04:54:26;13.95;;;5.95;;
67162;SDS011;54092;53.088;8.850;2022-12-18T04:56:51;9.13;;;5.85;;
67162;SDS011;54092;53.088;8.850;2022-12-18T04:59:17;11.70;;;4.95;;
67162;SDS011;54092;53.088;8.850;2022-12-18T05:01:42;11.85;;;5.38;;
67162;SDS011;54092;53.088;8.850;2022-12-18T05:04:08;10.52;;;5.60;;
67162;SDS011;54092;53.088;8.850;2022-12-18T05:06:33;14.73;;;6.80;;
67162;SDS011;54092;53.088;8.850;2022-12-18T05:08:59;8.82;;;5.32;;
67162;SDS011;54092;53.088;8.850;2022-12-18T05:11:25;11.95;;;5.90;;
67162;SDS011;54092;53.088;8.850;2022-12-18T05:13:50;13.00;;;5.88;;
67162;SDS011;54092;53.088;8.850;2022-12-18T05:16:16;21.27;;;6.88;;
67162;SDS011;54092;53.088;8.850;2022-12-18T05:18:41;9.45;;;5.40;;
67162;SDS011;54092;53.088;8.850;2022-12-18T05:21:07;11.60;;;5.57;;
67162;SDS011;54092;53.088;8.850;2022-12-18T05:23:42;8.13;;;5.00;;
67162;SDS011;54092;53.088;8.850;2022-12-18T05:26:07;12.23;;;6.00;;
67162;SDS011;54092;53.088;8.850;2022-12-18T05:28:35;15.07;;;5.38;;
67162;SDS011;54092;53.088;8.850;2022-12-18T05:31:01;11.50;;;5.70;;
67162;SDS011;54092;53.088;8.850;2022-12-18T05:33:30;10.13;;;4.95;;
67162;SDS011;54092;53.088;8.850;2022-12-18T05:35:58;12.60;;;5.65;;
67162;SDS011;54092;53.088;8.850;2022-12-18T05:38:26;10.80;;;6.20;;
67162;SDS011;54092;53.088;8.850;2022-12-18T05:40:52;10.23;;;5.90;;
67162;SDS011;54092;53.088;8.850;2022-12-18T05:43:18;10.10;;;5.32;;
67162;SDS011;54092;53.088;8.850;2022-12-18T05:45:45;18.70;;;6.47;;
67162;SDS011;54092;53.088;8.850;2022-12-18T05:48:11;8.85;;;4.90;;
67162;SDS011;54092;53.088;8.850;2022-12-18T05:50:37;6.88;;;4.47;;
67162;SDS011;54092;53.088;8.850;2022-12-18T05:53:05;13.43;;;5.15;;
67162;SDS011;54092;53.088;8.850;2022-12-18T05:55:34;12.57;;;4.90;;
67162;SDS011;54092;53.088;8.850;2022-12-18T05:58:01;11.45;;;6.05;;
67162;SDS011;54092;53.088;8.850;2022-12-18T06:00:28;9.07;;;4.85;;
67162;SDS011;54092;53.088;8.850;2022-12-18T06:02:53;6.30;;;3.85;;
67162;SDS011;54092;53.088;8.850;2022-12-18T06:05:19;9.77;;;5.18;;
67162;SDS011;54092;53.088;8.850;2022-12-18T06:07:44;9.23;;;4.47;;
67162;SDS011;54092;53.088;8.850;2022-12-18T06:10:10;13.85;;;5.28;;
67162;SDS011;54092;53.088;8.850;2022-12-18T06:12:45;7.90;;;4.60;;
67162;SDS011;54092;53.088;8.850;2022-12-18T06:15:11;16.25;;;6.03;;
67162;SDS011;54092;53.088;8.850;2022-12-18T06:17:37;12.18;;;5.35;;
67162;SDS011;54092;53.088;8.850;2022-12-18T06:20:03;17.83;;;6.90;;
67162;SDS011;54092;53.088;8.850;2022-12-18T06:22:30;12.15;;;6.13;;
67162;SDS011;54092;53.088;8.850;2022-12-18T06:24:57;11.57;;;5.50;;
67162;SDS011;54092;53.088;8.850;2022-12-18T06:27:24;11.57;;;5.53;;
67162;SDS011;54092;53.088;8.850;2022-12-18T06:29:49;16.10;;;7.05;;
67162;SDS011;54092;53.088;8.850;2022-12-18T06:32:15;10.48;;;4.78;;
67162;SDS011;54092;53.088;8.850;2022-12-18T06:34:41;12.00;;;7.25;;
67162;SDS011;54092;53.088;8.850;2022-12-18T06:37:07;9.52;;;5.45;;
67162;SDS011;54092;53.088;8.850;2022-12-18T06:39:32;8.55;;;4.68;;
67162;SDS011;54092;53.088;8.850;2022-12-18T06:41:58;11.18;;;6.03;;
67162;SDS011;54092;53.088;8.850;2022-12-18T06:44:23;12.82;;;7.13;;
67162;SDS011;54092;53.088;8.850;2022-12-18T06:46:49;14.68;;;5.88;;
67162;SDS011;54092;53.088;8.850;2022-12-18T06:49:14;10.07;;;4.50;;
67162;SDS011;54092;53.088;8.850;2022-12-18T06:51:41;12.93;;;4.68;;
67162;SDS011;54092;53.088;8.850;2022-12-18T06:54:06;15.32;;;6.15;;
67162;SDS011;54092;53.088;8.850;2022-12-18T06:56:32;13.27;;;5.60;;
67162;SDS011;54092;53.088;8.850;2022-12-18T06:58:57;12.45;;;5.93;;
67162;SDS011;54092;53.088;8.850;2022-12-18T07:01:23;13.20;;;5.80;;
67162;SDS011;54092;53.088;8.850;2022-12-18T07:03:52;16.38;;;6.75;;
67162;SDS011;54092;53.088;8.850;2022-12-18T07:06:20;11.57;;;5.90;;
67162;SDS011;54092;53.088;8.850;2022-12-18T07:08:47;10.45;;;5.43;;
67162;SDS011;54092;53.088;8.850;2022-12-18T07:11:14;8.98;;;4.60;;
67162;SDS011;54092;53.088;8.850;2022-12-18T07:13:40;9.30;;;5.00;;
67162;SDS011;54092;53.088;8.850;2022-12-18T07:18:35;11.07;;;5.07;;
67162;SDS011;54092;53.088;8.850;2022-12-18T07:21:05;13.52;;;5.93;;
67162;SDS011;54092;53.088;8.850;2022-12-18T07:23:32;9.32;;;4.90;;
67162;SDS011;54092;53.088;8.850;2022-12-18T07:26:06;15.73;;;5.82;;
67162;SDS011;54092;53.088;8.850;2022-12-18T07:28:33;12.23;;;4.93;;
67162;SDS011;54092;53.088;8.850;2022-12-18T07:31:03;9.95;;;5.75;;
67162;SDS011;54092;53.088;8.850;2022-12-18T07:33:31;11.85;;;5.22;;
67162;SDS011;54092;53.088;8.850;2022-12-18T07:35:58;14.23;;;5.10;;
67162;SDS011;54092;53.088;8.850;2022-12-18T07:38:24;9.10;;;4.72;;
67162;SDS011;54092;53.088;8.850;2022-12-18T07:40:50;16.15;;;7.53;;
67162;SDS011;54092;53.088;8.850;2022-12-18T07:43:15;5.68;;;3.25;;
67162;SDS011;54092;53.088;8.850;2022-12-18T07:45:41;13.15;;;6.03;;
67162;SDS011;54092;53.088;8.850;2022-12-18T07:48:07;7.68;;;3.58;;
67162;SDS011;54092;53.088;8.850;2022-12-18T07:50:33;9.98;;;4.20;;
67162;SDS011;54092;53.088;8.850;2022-12-18T07:52:58;8.27;;;4.25;;
67162;SDS011;54092;53.088;8.850;2022-12-18T07:55:28;8.77;;;4.13;;
67162;SDS011;54092;53.088;8.850;2022-12-18T07:57:54;14.30;;;6.30;;
67162;SDS011;54092;53.088;8.850;2022-12-18T08:00:19;14.55;;;5.15;;
67162;SDS011;54092;53.088;8.850;2022-12-18T08:02:45;7.38;;;4.22;;
67162;SDS011;54092;53.088;8.850;2022-12-18T08:05:11;13.65;;;6.38;;
67162;SDS011;54092;53.088;8.850;2022-12-18T08:07:36;12.20;;;5.20;;
67162;SDS011;54092;53.088;8.850;2022-12-18T08:10:02;11.68;;;6.38;;
67162;SDS011;54092;53.088;8.850;2022-12-18T08:12:28;11.57;;;6.47;;
67162;SDS011;54092;53.088;8.850;2022-12-18T08:14:53;9.93;;;6.10;;
67162;SDS011;54092;53.088;8.850;2022-12-18T08:17:19;10.32;;;5.18;;
67162;SDS011;54092;53.088;8.850;2022-12-18T08:19:45;10.00;;;4.72;;
67162;SDS011;54092;53.088;8.850;2022-12-18T08:22:10;9.98;;;4.65;;
67162;SDS011;54092;53.088;8.850;2022-12-18T08:24:36;7.75;;;4.18;;
67162;SDS011;54092;53.088;8.850;2022-12-18T08:27:01;11.90;;;5.35;;
67162;SDS011;54092;53.088;8.850;2022-12-18T08:29:27;9.32;;;4.03;;
67162;SDS011;54092;53.088;8.850;2022-12-18T08:31:53;10.27;;;4.82;;
67162;SDS011;54092;53.088;8.850;2022-12-18T08:34:18;13.32;;;5.50;;
67162;SDS011;54092;53.088;8.850;2022-12-18T08:36:44;14.02;;;6.22;;
67162;SDS011;54092;53.088;8.850;2022-12-18T08:39:09;13.65;;;6.70;;
67162;SDS011;54092;53.088;8.850;2022-12-18T08:41:35;16.52;;;6.43;;
67162;SDS011;54092;53.088;8.850;2022-12-18T08:44:00;10.60;;;5.43;;
67162;SDS011;54092;53.088;8.850;2022-12-18T08:46:44;10.52;;;5.18;;
67162;SDS011;54092;53.088;8.850;2022-12-18T08:49:10;10.05;;;5.85;;
67162;SDS011;54092;53.088;8.850;2022-12-18T08:51:36;10.02;;;5.20;;
67162;SDS011;54092;53.088;8.850;2022-12-18T08:54:02;9.65;;;5.13;;
67162;SDS011;54092;53.088;8.850;2022-12-18T08:56:29;15.48;;;4.00;;
67162;SDS011;54092;53.088;8.850;2022-12-18T08:58:55;15.15;;;5.72;;
67162;SDS011;54092;53.088;8.850;2022-12-18T09:01:21;11.43;;;6.03;;
67162;SDS011;54092;53.088;8.850;2022-12-18T09:03:47;13.45;;;5.88;;
67162;SDS011;54092;53.088;8.850;2022-12-18T09:06:14;15.90;;;5.47;;
67162;SDS011;54092;53.088;8.850;2022-12-18T09:08:42;9.73;;;5.38;;
67162;SDS011;54092;53.088;8.850;2022-12-18T09:11:12;14.48;;;6.68;;
67162;SDS011;54092;53.088;8.850;2022-12-18T09:13:42;12.98;;;6.05;;
67162;SDS011;54092;53.088;8.850;2022-12-18T09:16:07;11.38;;;5.32;;
67162;SDS011;54092;53.088;8.850;2022-12-18T09:18:33;13.38;;;7.25;;
67162;SDS011;54092;53.088;8.850;2022-12-18T09:20:58;14.65;;;6.90;;
67162;SDS011;54092;53.088;8.850;2022-12-18T09:23:24;13.40;;;6.55;;
67162;SDS011;54092;53.088;8.850;2022-12-18T09:25:49;14.90;;;6.28;;
67162;SDS011;54092;53.088;8.850;2022-12-18T09:28:18;17.00;;;7.35;;
67162;SDS011;54092;53.088;8.850;2022-12-18T09:30:47;18.30;;;7.38;;
67162;SDS011;54092;53.088;8.850;2022-12-18T09:35:40;17.42;;;7.45;;
67162;SDS011;54092;53.088;8.850;2022-12-18T09:38:07;14.02;;;7.28;;
67162;SDS011;54092;53.088;8.850;2022-12-18T09:40:39;18.80;;;7.55;;
67162;SDS011;54092;53.088;8.850;2022-12-18T09:43:14;15.63;;;7.65;;
67162;SDS011;54092;53.088;8.850;2022-12-18T09:45:46;15.57;;;7.35;;
67162;SDS011;54092;53.088;8.850;2022-12-18T09:48:18;14.43;;;7.63;;
67162;SDS011;54092;53.088;8.850;2022-12-18T09:50:55;16.03;;;8.43;;
67162;SDS011;54092;53.088;8.850;2022-12-18T09:53:25;18.33;;;7.28;;
67162;SDS011;54092;53.088;8.850;2022-12-18T09:55:55;15.85;;;7.50;;
67162;SDS011;54092;53.088;8.850;2022-12-18T09:58:28;17.05;;;7.43;;
67162;SDS011;54092;53.088;8.850;2022-12-18T10:01:10;15.02;;;7.10;;
67162;SDS011;54092;53.088;8.850;2022-12-18T10:03:39;16.52;;;6.82;;
67162;SDS011;54092;53.088;8.850;2022-12-18T10:09:01;12.48;;;6.50;;
67162;SDS011;54092;53.088;8.850;2022-12-18T10:14:33;13.68;;;6.55;;
67162;SDS011;54092;53.088;8.850;2022-12-18T10:25:22;11.70;;;6.30;;
67162;SDS011;54092;53.088;8.850;2022-12-18T10:27:57;18.98;;;7.30;;
67162;SDS011;54092;53.088;8.850;2022-12-18T10:30:31;13.70;;;6.78;;
67162;SDS011;54092;53.088;8.850;2022-12-18T10:33:00;16.40;;;8.27;;
67162;SDS011;54092;53.088;8.850;2022-12-18T10:35:27;15.25;;;7.55;;
67162;SDS011;54092;53.088;8.850;2022-12-18T10:38:03;13.23;;;6.78;;
67162;SDS011;54092;53.088;8.850;2022-12-18T10:43:26;12.02;;;6.82;;
67162;SDS011;54092;53.088;8.850;2022-12-18T10:46:25;14.45;;;7.40;;
67162;SDS011;54092;53.088;8.850;2022-12-18T10:53:57;17.92;;;8.23;;
67162;SDS011;54092;53.088;8.850;2022-12-18T10:56:23;15.68;;;7.60;;
67162;SDS011;54092;53.088;8.850;2022-12-18T10:58:55;19.55;;;8.82;;
67162;SDS011;54092;53.088;8.850;2022-12-18T11:04:25;39.80;;;11.40;;
67162;SDS011;54092;53.088;8.850;2022-12-18T11:06:58;24.10;;;9.23;;
67162;SDS011;54092;53.088;8.850;2022-12-18T11:09:29;18.98;;;10.20;;
67162;SDS011;54092;53.088;8.850;2022-12-18T11:11:57;20.17;;;8.45;;
67162;SDS011;54092;53.088;8.850;2022-12-18T11:14:29;20.08;;;9.02;;
67162;SDS011;54092;53.088;8.850;2022-12-18T11:16:58;16.10;;;7.80;;
67162;SDS011;54092;53.088;8.850;2022-12-18T11:19:37;16.35;;;8.10;;
67162;SDS011;54092;53.088;8.850;2022-12-18T11:25:02;11.95;;;6.10;;
67162;SDS011;54092;53.088;8.850;2022-12-18T11:27:30;14.95;;;7.05;;
67162;SDS011;54092;53.088;8.850;2022-12-18T11:30:10;18.65;;;7.13;;
67162;SDS011;54092;53.088;8.850;2022-12-18T11:32:48;14.13;;;6.93;;
67162;SDS011;54092;53.088;8.850;2022-12-18T11:41:03;12.30;;;7.18;;
67162;SDS011;54092;53.088;8.850;2022-12-18T11:43:45;16.38;;;7.57;;
67162;SDS011;54092;53.088;8.850;2022-12-18T11:46:33;17.52;;;7.20;;
67162;SDS011;54092;53.088;8.850;2022-12-18T11:54:58;12.13;;;6.53;;
67162;SDS011;54092;53.088;8.850;2022-12-18T11:57:34;12.98;;;7.20;;
67162;SDS011;54092;53.088;8.850;2022-12-18T12:08:13;13.88;;;6.38;;
67162;SDS011;54092;53.088;8.850;2022-12-18T12:14:04;11.18;;;5.90;;
67162;SDS011;54092;53.088;8.850;2022-12-18T12:19:19;12.77;;;5.43;;
67162;SDS011;54092;53.088;8.850;2022-12-18T12:27:40;16.48;;;6.53;;
67162;SDS011;54092;53.088;8.850;2022-12-18T12:38:05;14.98;;;7.45;;
67162;SDS011;54092;53.088;8.850;2022-12-18T12:40:36;13.80;;;6.28;;
67162;SDS011;54092;53.088;8.850;2022-12-18T12:46:09;11.50;;;6.00;;
67162;SDS011;54092;53.088;8.850;2022-12-18T12:51:16;15.40;;;5.82;;
67162;SDS011;54092;53.088;8.850;2022-12-18T12:53:47;13.48;;;5.75;;
67162;SDS011;54092;53.088;8.850;2022-12-18T12:56:15;12.20;;;6.40;;
67162;SDS011;54092;53.088;8.850;2022-12-18T12:59:01;12.47;;;5.90;;
67162;SDS011;54092;53.088;8.850;2022-12-18T13:01:49;15.00;;;6.22;;
67162;SDS011;54092;53.088;8.850;2022-12-18T13:04:45;11.05;;;5.65;;
67162;SDS011;54092;53.088;8.850;2022-12-18T13:07:26;13.95;;;6.43;;
67162;SDS011;54092;53.088;8.850;2022-12-18T13:12:53;16.05;;;6.20;;
67162;SDS011;54092;53.088;8.850;2022-12-18T13:15:34;11.00;;;6.00;;
67162;SDS011;54092;53.088;8.850;2022-12-18T13:20:34;14.57;;;6.05;;
67162;SDS011;54092;53.088;8.850;2022-12-18T13:23:01;14.10;;;5.65;;
67162;SDS011;54092;53.088;8.850;2022-12-18T13:25:52;13.95;;;6.32;;
67162;SDS011;54092;53.088;8.850;2022-12-18T13:28:23;11.65;;;4.10;;
67162;SDS011;54092;53.088;8.850;2022-12-18T13:30:58;19.73;;;7.00;;
67162;SDS011;54092;53.088;8.850;2022-12-18T13:35:53;13.07;;;5.68;;
67162;SDS011;54092;53.088;8.850;2022-12-18T13:38:35;10.80;;;6.07;;
67162;SDS011;54092;53.088;8.850;2022-12-18T13:41:02;14.10;;;6.47;;
67162;SDS011;54092;53.088;8.850;2022-12-18T13:43:42;16.83;;;7.13;;
67162;SDS011;54092;53.088;8.850;2022-12-18T13:51:29;11.05;;;5.72;;
67162;SDS011;54092;53.088;8.850;2022-12-18T13:53:59;11.43;;;5.35;;
67162;SDS011;54092;53.088;8.850;2022-12-18T13:56:32;11.68;;;5.80;;
67162;SDS011;54092;53.088;8.850;2022-12-18T13:59:15;15.25;;;6.13;;
67162;SDS011;54092;53.088;8.850;2022-12-18T14:01:45;11.55;;;5.85;;
67162;SDS011;54092;53.088;8.850;2022-12-18T14:04:26;9.30;;;4.82;;
67162;SDS011;54092;53.088;8.850;2022-12-18T14:06:55;10.02;;;5.50;;
67162;SDS011;54092;53.088;8.850;2022-12-18T14:09:42;14.57;;;6.78;;
67162;SDS011;54092;53.088;8.850;2022-12-18T14:12:19;14.88;;;7.15;;
67162;SDS011;54092;53.088;8.850;2022-12-18T14:15:14;14.85;;;6.95;;
67162;SDS011;54092;53.088;8.850;2022-12-18T14:17:50;10.95;;;5.53;;
67162;SDS011;54092;53.088;8.850;2022-12-18T14:20:37;14.35;;;6.07;;
67162;SDS011;54092;53.088;8.850;2022-12-18T14:23:24;12.85;;;5.28;;
67162;SDS011;54092;53.088;8.850;2022-12-18T14:25:56;13.88;;;6.70;;
67162;SDS011;54092;53.088;8.850;2022-12-18T14:28:22;10.63;;;4.68;;
67162;SDS011;54092;53.088;8.850;2022-12-18T14:30:48;16.58;;;6.82;;
67162;SDS011;54092;53.088;8.850;2022-12-18T14:35:52;11.10;;;5.63;;
67162;SDS011;54092;53.088;8.850;2022-12-18T14:40:59;14.20;;;5.85;;
67162;SDS011;54092;53.088;8.850;2022-12-18T14:43:28;14.07;;;7.32;;
67162;SDS011;54092;53.088;8.850;2022-12-18T14:45:55;10.52;;;5.30;;
67162;SDS011;54092;53.088;8.850;2022-12-18T14:48:37;17.38;;;6.47;;
67162;SDS011;54092;53.088;8.850;2022-12-18T14:51:26;13.73;;;6.28;;
67162;SDS011;54092;53.088;8.850;2022-12-18T14:54:02;15.57;;;6.60;;
67162;SDS011;54092;53.088;8.850;2022-12-18T14:56:32;11.18;;;4.95;;
67162;SDS011;54092;53.088;8.850;2022-12-18T14:59:03;17.55;;;5.70;;
67162;SDS011;54092;53.088;8.850;2022-12-18T15:01:33;14.82;;;7.18;;
67162;SDS011;54092;53.088;8.850;2022-12-18T15:04:04;13.25;;;5.82;;
67162;SDS011;54092;53.088;8.850;2022-12-18T15:06:47;14.48;;;5.43;;
67162;SDS011;54092;53.088;8.850;2022-12-18T15:09:26;13.20;;;6.10;;
67162;SDS011;54092;53.088;8.850;2022-12-18T15:11:56;9.02;;;4.50;;
67162;SDS011;54092;53.088;8.850;2022-12-18T15:14:28;11.77;;;5.10;;
67162;SDS011;54092;53.088;8.850;2022-12-18T15:17:18;10.65;;;4.25;;
67162;SDS011;54092;53.088;8.850;2022-12-18T15:19:47;12.27;;;6.40;;
67162;SDS011;54092;53.088;8.850;2022-12-18T15:22:25;10.40;;;5.55;;
67162;SDS011;54092;53.088;8.850;2022-12-18T15:24:53;13.10;;;5.80;;
67162;SDS011;54092;53.088;8.850;2022-12-18T15:27:24;13.73;;;6.22;;
67162;SDS011;54092;53.088;8.850;2022-12-18T15:32:35;12.18;;;5.32;;
67162;SDS011;54092;53.088;8.850;2022-12-18T15:37:33;9.45;;;4.30;;
67162;SDS011;54092;53.088;8.850;2022-12-18T15:39:59;11.40;;;5.15;;
67162;SDS011;54092;53.088;8.850;2022-12-18T15:42:24;16.83;;;7.35;;
67162;SDS011;54092;53.088;8.850;2022-12-18T15:45:12;11.07;;;5.85;;
67162;SDS011;54092;53.088;8.850;2022-12-18T15:47:38;11.27;;;5.80;;
67162;SDS011;54092;53.088;8.850;2022-12-18T15:50:04;12.85;;;6.00;;
67162;SDS011;54092;53.088;8.850;2022-12-18T15:52:31;9.50;;;5.18;;
67162;SDS011;54092;53.088;8.850;2022-12-18T15:57:55;9.68;;;4.93;;
67162;SDS011;54092;53.088;8.850;2022-12-18T16:00:21;14.82;;;5.50;;
67162;SDS011;54092;53.088;8.850;2022-12-18T16:02:47;14.45;;;4.85;;
67162;SDS011;54092;53.088;8.850;2022-12-18T16:05:16;14.52;;;6.85;;
67162;SDS011;54092;53.088;8.850;2022-12-18T16:07:43;14.75;;;5.85;;
67162;SDS011;54092;53.088;8.850;2022-12-18T16:10:10;10.35;;;4.88;;
67162;SDS011;54092;53.088;8.850;2022-12-18T16:12:35;14.48;;;5.57;;
67162;SDS011;54092;53.088;8.850;2022-12-18T16:15:02;7.70;;;3.90;;
67162;SDS011;54092;53.088;8.850;2022-12-18T16:17:29;14.60;;;6.35;;
67162;SDS011;54092;53.088;8.850;2022-12-18T16:19:54;12.60;;;5.80;;
67162;SDS011;54092;53.088;8.850;2022-12-18T16:22:21;9.15;;;5.40;;
67162;SDS011;54092;53.088;8.850;2022-12-18T16:24:51;15.68;;;6.25;;
67162;SDS011;54092;53.088;8.850;2022-12-18T16:27:18;8.65;;;4.80;;
67162;SDS011;54092;53.088;8.850;2022-12-18T16:29:44;11.20;;;4.45;;
67162;SDS011;54092;53.088;8.850;2022-12-18T16:32:14;13.32;;;5.60;;
67162;SDS011;54092;53.088;8.850;2022-12-18T16:34:41;11.45;;;5.72;;
67162;SDS011;54092;53.088;8.850;2022-12-18T16:37:09;7.50;;;3.88;;
67162;SDS011;54092;53.088;8.850;2022-12-18T16:39:36;11.02;;;5.75;;
67162;SDS011;54092;53.088;8.850;2022-12-18T16:42:03;20.17;;;5.75;;
67162;SDS011;54092;53.088;8.850;2022-12-18T16:44:30;12.10;;;5.03;;
67162;SDS011;54092;53.088;8.850;2022-12-18T16:46:56;12.02;;;5.82;;
67162;SDS011;54092;53.088;8.850;2022-12-18T16:51:52;11.60;;;5.55;;
67162;SDS011;54092;53.088;8.850;2022-12-18T16:54:18;13.80;;;6.35;;
67162;SDS011;54092;53.088;8.850;2022-12-18T16:56:44;14.48;;;5.47;;
67162;SDS011;54092;53.088;8.850;2022-12-18T16:59:10;14.90;;;6.47;;
67162;SDS011;54092;53.088;8.850;2022-12-18T17:01:37;9.70;;;5.18;;